sensor_id;sensor_type;location;lat;lon;timestamp;temperature;humidity
46356;DHT22;32066;49.474;11.106;2022-11-23T00:01:37;9.00;98.50
46356;DHT22;32066;49.474;11.106;2022-11-23T00:04:06;9.00;98.40
46356;DHT22;32066;49.474;11.106;2022-11-23T00:06:33;9.00;98.30
46356;DHT22;32066;49.474;11.106;2022-11-23T00:09:00;9.00;98.40
46356;DHT22;32066;49.474;11.106;2022-11-23T00:11:27;9.00;98.30
46356;DHT22;32066;49.474;11.106;2022-11-23T00:13:55;9.00;98.30
46356;DHT22;32066;49.474;11.106;2022-11-23T00:16:26;9.00;98.20
46356;DHT22;32066;49.474;11.106;2022-11-23T00:18:53;9.00;98.30
46356;DHT22;32066;49.474;11.106;2022-11-23T00:21:21;9.00;98.20
46356;DHT22;32066;49.474;11.106;2022-11-23T00:23:49;9.00;98.40
46356;DHT22;32066;49.474;11.106;2022-11-23T00:26:16;9.00;98.30
46356;DHT22;32066;49.474;11.106;2022-11-23T00:28:44;9.00;98.30
46356;DHT22;32066;49.474;11.106;2022-11-23T00:31:12;9.00;98.30
46356;DHT22;32066;49.474;11.106;2022-11-23T00:33:40;8.90;98.40
46356;DHT22;32066;49.474;11.106;2022-11-23T00:36:10;8.90;98.40
46356;DHT22;32066;49.474;11.106;2022-11-23T00:38:37;8.90;98.60
46356;DHT22;32066;49.474;11.106;2022-11-23T00:41:07;8.90;98.40
46356;DHT22;32066;49.474;11.106;2022-11-23T00:43:35;8.90;98.50
46356;DHT22;32066;49.474;11.106;2022-11-23T00:46:04;8.90;98.40
46356;DHT22;32066;49.474;11.106;2022-11-23T00:48:31;8.90;98.50
46356;DHT22;32066;49.474;11.106;2022-11-23T00:51:00;8.90;98.50
46356;DHT22;32066;49.474;11.106;2022-11-23T00:53:27;8.90;98.50
46356;DHT22;32066;49.474;11.106;2022-11-23T00:55:55;8.80;98.40
46356;DHT22;32066;49.474;11.106;2022-11-23T00:58:23;8.80;98.40
46356;DHT22;32066;49.474;11.106;2022-11-23T01:00:58;8.80;98.40
46356;DHT22;32066;49.474;11.106;2022-11-23T01:03:25;8.80;98.30
46356;DHT22;32066;49.474;11.106;2022-11-23T01:05:52;8.80;98.30
46356;DHT22;32066;49.474;11.106;2022-11-23T01:08:21;8.80;98.30
46356;DHT22;32066;49.474;11.106;2022-11-23T01:10:47;8.80;98.30
46356;DHT22;32066;49.474;11.106;2022-11-23T01:13:14;8.80;98.30
46356;DHT22;32066;49.474;11.106;2022-11-23T01:15:48;8.80;98.40
46356;DHT22;32066;49.474;11.106;2022-11-23T01:18:15;8.80;98.30
46356;DHT22;32066;49.474;11.106;2022-11-23T01:20:42;8.80;98.40
46356;DHT22;32066;49.474;11.106;2022-11-23T01:23:09;8.70;98.40
46356;DHT22;32066;49.474;11.106;2022-11-23T01:25:37;8.70;98.40
46356;DHT22;32066;49.474;11.106;2022-11-23T01:28:04;8.70;98.40
46356;DHT22;32066;49.474;11.106;2022-11-23T01:30:31;8.70;98.40
46356;DHT22;32066;49.474;11.106;2022-11-23T01:32:59;8.70;98.40
46356;DHT22;32066;49.474;11.106;2022-11-23T01:35:26;8.70;98.40
46356;DHT22;32066;49.474;11.106;2022-11-23T01:37:53;8.70;98.50
46356;DHT22;32066;49.474;11.106;2022-11-23T01:40:20;8.70;98.40
46356;DHT22;32066;49.474;11.106;2022-11-23T01:42:53;8.60;98.40
46356;DHT22;32066;49.474;11.106;2022-11-23T01:45:38;8.60;98.40
46356;DHT22;32066;49.474;11.106;2022-11-23T01:48:13;8.60;98.40
46356;DHT22;32066;49.474;11.106;2022-11-23T01:50:41;8.60;98.40
46356;DHT22;32066;49.474;11.106;2022-11-23T01:53:09;8.60;98.40
46356;DHT22;32066;49.474;11.106;2022-11-23T01:55:36;8.60;98.30
46356;DHT22;32066;49.474;11.106;2022-11-23T01:58:07;8.60;98.30
46356;DHT22;32066;49.474;11.106;2022-11-23T02:00:35;8.60;98.30
46356;DHT22;32066;49.474;11.106;2022-11-23T02:03:03;8.60;98.30
46356;DHT22;32066;49.474;11.106;2022-11-23T02:05:34;8.60;98.20
46356;DHT22;32066;49.474;11.106;2022-11-23T02:08:02;8.60;98.20
46356;DHT22;32066;49.474;11.106;2022-11-23T02:10:30;8.60;98.30
46356;DHT22;32066;49.474;11.106;2022-11-23T02:13:01;8.50;98.20
46356;DHT22;32066;49.474;11.106;2022-11-23T02:15:30;8.50;98.20
46356;DHT22;32066;49.474;11.106;2022-11-23T02:17:58;8.60;98.20
46356;DHT22;32066;49.474;11.106;2022-11-23T02:20:26;8.50;98.20
46356;DHT22;32066;49.474;11.106;2022-11-23T02:23:04;8.50;98.20
46356;DHT22;32066;49.474;11.106;2022-11-23T02:25:39;8.50;98.10
46356;DHT22;32066;49.474;11.106;2022-11-23T02:28:11;8.50;98.20
46356;DHT22;32066;49.474;11.106;2022-11-23T02:30:39;8.50;98.10
46356;DHT22;32066;49.474;11.106;2022-11-23T02:33:06;8.50;98.20
46356;DHT22;32066;49.474;11.106;2022-11-23T02:35:33;8.50;98.20
46356;DHT22;32066;49.474;11.106;2022-11-23T02:38:01;8.40;98.10
46356;DHT22;32066;49.474;11.106;2022-11-23T02:40:33;8.40;98.10
46356;DHT22;32066;49.474;11.106;2022-11-23T02:43:01;8.40;98.10
46356;DHT22;32066;49.474;11.106;2022-11-23T02:45:35;8.50;98.10
46356;DHT22;32066;49.474;11.106;2022-11-23T02:48:04;8.50;98.20
46356;DHT22;32066;49.474;11.106;2022-11-23T02:50:31;8.40;98.20
46356;DHT22;32066;49.474;11.106;2022-11-23T02:52:59;8.40;98.10
46356;DHT22;32066;49.474;11.106;2022-11-23T02:55:26;8.40;98.20
46356;DHT22;32066;49.474;11.106;2022-11-23T02:57:52;8.40;98.10
46356;DHT22;32066;49.474;11.106;2022-11-23T03:00:20;8.40;98.10
46356;DHT22;32066;49.474;11.106;2022-11-23T03:02:48;8.40;98.20
46356;DHT22;32066;49.474;11.106;2022-11-23T03:05:15;8.40;98.20
46356;DHT22;32066;49.474;11.106;2022-11-23T03:07:42;8.40;98.10
46356;DHT22;32066;49.474;11.106;2022-11-23T03:10:11;8.40;98.10
46356;DHT22;32066;49.474;11.106;2022-11-23T03:12:38;8.40;98.10
46356;DHT22;32066;49.474;11.106;2022-11-23T03:15:07;8.40;98.10
46356;DHT22;32066;49.474;11.106;2022-11-23T03:17:35;8.40;98.40
46356;DHT22;32066;49.474;11.106;2022-11-23T03:20:05;8.40;98.20
46356;DHT22;32066;49.474;11.106;2022-11-23T03:22:36;8.40;98.20
46356;DHT22;32066;49.474;11.106;2022-11-23T03:25:04;8.30;98.20
46356;DHT22;32066;49.474;11.106;2022-11-23T03:27:31;8.30;98.30
46356;DHT22;32066;49.474;11.106;2022-11-23T03:30:00;8.30;98.30
46356;DHT22;32066;49.474;11.106;2022-11-23T03:32:30;8.30;98.20
46356;DHT22;32066;49.474;11.106;2022-11-23T03:34:57;8.30;98.20
46356;DHT22;32066;49.474;11.106;2022-11-23T03:37:26;8.30;98.20
46356;DHT22;32066;49.474;11.106;2022-11-23T03:39:53;8.30;98.20
46356;DHT22;32066;49.474;11.106;2022-11-23T03:42:39;8.30;98.10
46356;DHT22;32066;49.474;11.106;2022-11-23T03:45:07;8.30;98.30
46356;DHT22;32066;49.474;11.106;2022-11-23T03:47:35;8.30;98.20
46356;DHT22;32066;49.474;11.106;2022-11-23T03:50:02;8.30;98.20
46356;DHT22;32066;49.474;11.106;2022-11-23T03:52:32;8.20;98.10
46356;DHT22;32066;49.474;11.106;2022-11-23T03:54:59;8.30;98.20
46356;DHT22;32066;49.474;11.106;2022-11-23T03:57:26;8.30;98.20
46356;DHT22;32066;49.474;11.106;2022-11-23T03:59:53;8.20;98.20
46356;DHT22;32066;49.474;11.106;2022-11-23T04:02:21;8.20;98.20
46356;DHT22;32066;49.474;11.106;2022-11-23T04:04:57;8.20;98.20
46356;DHT22;32066;49.474;11.106;2022-11-23T04:07:50;8.20;98.20
46356;DHT22;32066;49.474;11.106;2022-11-23T04:10:18;8.20;98.20
46356;DHT22;32066;49.474;11.106;2022-11-23T04:13:03;8.20;98.20
46356;DHT22;32066;49.474;11.106;2022-11-23T04:15:30;8.20;98.10
46356;DHT22;32066;49.474;11.106;2022-11-23T04:17:57;8.20;98.20
46356;DHT22;32066;49.474;11.106;2022-11-23T04:20:24;8.20;98.20
46356;DHT22;32066;49.474;11.106;2022-11-23T04:22:52;8.20;98.10
46356;DHT22;32066;49.474;11.106;2022-11-23T04:25:19;8.20;98.20
46356;DHT22;32066;49.474;11.106;2022-11-23T04:27:48;8.20;98.10
46356;DHT22;32066;49.474;11.106;2022-11-23T04:30:15;8.20;98.30
46356;DHT22;32066;49.474;11.106;2022-11-23T04:32:43;8.20;98.40
46356;DHT22;32066;49.474;11.106;2022-11-23T04:35:12;8.20;98.50
46356;DHT22;32066;49.474;11.106;2022-11-23T04:37:40;8.10;98.50
46356;DHT22;32066;49.474;11.106;2022-11-23T04:40:11;8.20;98.60
46356;DHT22;32066;49.474;11.106;2022-11-23T04:42:47;8.20;98.50
46356;DHT22;32066;49.474;11.106;2022-11-23T04:45:14;8.20;98.60
46356;DHT22;32066;49.474;11.106;2022-11-23T04:47:42;8.20;98.70
46356;DHT22;32066;49.474;11.106;2022-11-23T04:50:12;8.20;98.70
46356;DHT22;32066;49.474;11.106;2022-11-23T04:52:41;8.20;98.70
46356;DHT22;32066;49.474;11.106;2022-11-23T04:55:15;8.10;98.60
46356;DHT22;32066;49.474;11.106;2022-11-23T04:57:50;8.10;98.60
46356;DHT22;32066;49.474;11.106;2022-11-23T05:00:17;8.10;98.80
46356;DHT22;32066;49.474;11.106;2022-11-23T05:02:45;8.10;98.50
46356;DHT22;32066;49.474;11.106;2022-11-23T05:05:18;8.10;98.50
46356;DHT22;32066;49.474;11.106;2022-11-23T05:07:45;8.10;98.50
46356;DHT22;32066;49.474;11.106;2022-11-23T05:10:15;8.10;98.50
46356;DHT22;32066;49.474;11.106;2022-11-23T05:12:44;8.10;98.60
46356;DHT22;32066;49.474;11.106;2022-11-23T05:15:12;8.10;98.50
46356;DHT22;32066;49.474;11.106;2022-11-23T05:17:40;8.20;98.50
46356;DHT22;32066;49.474;11.106;2022-11-23T05:20:14;8.20;98.50
46356;DHT22;32066;49.474;11.106;2022-11-23T05:22:46;8.20;98.50
46356;DHT22;32066;49.474;11.106;2022-11-23T05:25:18;8.20;98.50
46356;DHT22;32066;49.474;11.106;2022-11-23T05:27:49;8.20;98.50
46356;DHT22;32066;49.474;11.106;2022-11-23T05:30:17;8.20;98.50
46356;DHT22;32066;49.474;11.106;2022-11-23T05:32:44;8.20;98.50
46356;DHT22;32066;49.474;11.106;2022-11-23T05:35:12;8.20;98.80
46356;DHT22;32066;49.474;11.106;2022-11-23T05:37:40;8.20;98.50
46356;DHT22;32066;49.474;11.106;2022-11-23T05:40:10;8.20;98.60
46356;DHT22;32066;49.474;11.106;2022-11-23T05:42:39;8.20;98.50
46356;DHT22;32066;49.474;11.106;2022-11-23T05:45:17;8.20;98.60
46356;DHT22;32066;49.474;11.106;2022-11-23T05:47:49;8.20;98.50
46356;DHT22;32066;49.474;11.106;2022-11-23T05:50:22;8.20;98.50
46356;DHT22;32066;49.474;11.106;2022-11-23T05:53:09;8.20;98.50
46356;DHT22;32066;49.474;11.106;2022-11-23T05:55:36;8.20;98.50
46356;DHT22;32066;49.474;11.106;2022-11-23T05:58:04;8.20;98.50
46356;DHT22;32066;49.474;11.106;2022-11-23T06:00:31;8.20;98.50
46356;DHT22;32066;49.474;11.106;2022-11-23T06:03:02;8.20;98.50
46356;DHT22;32066;49.474;11.106;2022-11-23T06:05:30;8.20;98.40
46356;DHT22;32066;49.474;11.106;2022-11-23T06:07:58;8.20;98.40
46356;DHT22;32066;49.474;11.106;2022-11-23T06:10:26;8.20;98.40
46356;DHT22;32066;49.474;11.106;2022-11-23T06:12:54;8.20;98.50
46356;DHT22;32066;49.474;11.106;2022-11-23T06:15:23;8.20;98.50
46356;DHT22;32066;49.474;11.106;2022-11-23T06:17:50;8.20;98.50
46356;DHT22;32066;49.474;11.106;2022-11-23T06:20:19;8.20;98.50
46356;DHT22;32066;49.474;11.106;2022-11-23T06:22:56;8.20;98.50
46356;DHT22;32066;49.474;11.106;2022-11-23T06:25:24;8.20;98.50
46356;DHT22;32066;49.474;11.106;2022-11-23T06:28:01;8.20;98.50
46356;DHT22;32066;49.474;11.106;2022-11-23T06:30:36;8.20;98.50
46356;DHT22;32066;49.474;11.106;2022-11-23T06:33:06;8.20;98.50
46356;DHT22;32066;49.474;11.106;2022-11-23T06:35:39;8.20;98.50
46356;DHT22;32066;49.474;11.106;2022-11-23T06:38:06;8.10;98.50
46356;DHT22;32066;49.474;11.106;2022-11-23T06:40:33;8.10;98.60
46356;DHT22;32066;49.474;11.106;2022-11-23T06:43:02;8.10;98.50
46356;DHT22;32066;49.474;11.106;2022-11-23T06:45:43;8.20;98.60
46356;DHT22;32066;49.474;11.106;2022-11-23T06:48:13;8.20;98.50
46356;DHT22;32066;49.474;11.106;2022-11-23T06:50:44;8.20;98.60
46356;DHT22;32066;49.474;11.106;2022-11-23T06:53:11;8.10;98.50
46356;DHT22;32066;49.474;11.106;2022-11-23T06:55:46;8.10;98.50
46356;DHT22;32066;49.474;11.106;2022-11-23T06:58:16;8.10;98.60
46356;DHT22;32066;49.474;11.106;2022-11-23T07:00:44;8.20;98.70
46356;DHT22;32066;49.474;11.106;2022-11-23T07:03:18;8.10;98.60
46356;DHT22;32066;49.474;11.106;2022-11-23T07:05:48;8.20;98.60
46356;DHT22;32066;49.474;11.106;2022-11-23T07:08:14;8.20;98.60
46356;DHT22;32066;49.474;11.106;2022-11-23T07:10:41;8.20;98.60
46356;DHT22;32066;49.474;11.106;2022-11-23T07:13:12;8.20;98.60
46356;DHT22;32066;49.474;11.106;2022-11-23T07:15:41;8.20;98.50
46356;DHT22;32066;49.474;11.106;2022-11-23T07:18:11;8.20;98.50
46356;DHT22;32066;49.474;11.106;2022-11-23T07:20:44;8.20;98.60
46356;DHT22;32066;49.474;11.106;2022-11-23T07:23:11;8.20;98.60
46356;DHT22;32066;49.474;11.106;2022-11-23T07:25:39;8.20;98.60
46356;DHT22;32066;49.474;11.106;2022-11-23T07:28:07;8.20;98.60
46356;DHT22;32066;49.474;11.106;2022-11-23T07:30:35;8.20;98.60
46356;DHT22;32066;49.474;11.106;2022-11-23T07:33:05;8.20;98.60
46356;DHT22;32066;49.474;11.106;2022-11-23T07:35:36;8.30;98.70
46356;DHT22;32066;49.474;11.106;2022-11-23T07:38:04;8.20;98.70
46356;DHT22;32066;49.474;11.106;2022-11-23T07:40:32;8.30;98.70
46356;DHT22;32066;49.474;11.106;2022-11-23T07:43:00;8.30;98.70
46356;DHT22;32066;49.474;11.106;2022-11-23T07:45:26;8.30;98.70
46356;DHT22;32066;49.474;11.106;2022-11-23T07:47:58;8.30;98.70
46356;DHT22;32066;49.474;11.106;2022-11-23T07:50:26;8.30;98.70
46356;DHT22;32066;49.474;11.106;2022-11-23T07:52:54;9.00;99.90
46356;DHT22;32066;49.474;11.106;2022-11-23T07:55:22;9.50;99.90
46356;DHT22;32066;49.474;11.106;2022-11-23T07:57:51;9.60;99.90
46356;DHT22;32066;49.474;11.106;2022-11-23T08:00:19;9.40;99.90
46356;DHT22;32066;49.474;11.106;2022-11-23T08:02:46;9.20;99.90
46356;DHT22;32066;49.474;11.106;2022-11-23T08:05:13;9.10;99.90
46356;DHT22;32066;49.474;11.106;2022-11-23T08:07:40;9.00;99.90
46356;DHT22;32066;49.474;11.106;2022-11-23T08:10:09;9.00;99.90
46356;DHT22;32066;49.474;11.106;2022-11-23T08:12:36;8.90;99.90
46356;DHT22;32066;49.474;11.106;2022-11-23T08:15:03;8.80;99.90
46356;DHT22;32066;49.474;11.106;2022-11-23T08:17:30;8.80;99.90
46356;DHT22;32066;49.474;11.106;2022-11-23T08:19:57;8.70;99.90
46356;DHT22;32066;49.474;11.106;2022-11-23T08:22:24;8.70;99.90
46356;DHT22;32066;49.474;11.106;2022-11-23T08:24:52;8.70;99.90
46356;DHT22;32066;49.474;11.106;2022-11-23T08:27:20;8.70;99.90
46356;DHT22;32066;49.474;11.106;2022-11-23T08:29:46;8.60;99.80
46356;DHT22;32066;49.474;11.106;2022-11-23T08:32:13;8.60;99.90
46356;DHT22;32066;49.474;11.106;2022-11-23T08:34:41;8.60;99.80
46356;DHT22;32066;49.474;11.106;2022-11-23T08:37:09;8.60;99.80
46356;DHT22;32066;49.474;11.106;2022-11-23T08:39:36;8.60;99.60
46356;DHT22;32066;49.474;11.106;2022-11-23T08:42:03;8.50;99.50
46356;DHT22;32066;49.474;11.106;2022-11-23T08:44:31;8.50;99.60
46356;DHT22;32066;49.474;11.106;2022-11-23T08:46:58;8.50;99.50
46356;DHT22;32066;49.474;11.106;2022-11-23T08:49:24;8.50;99.50
46356;DHT22;32066;49.474;11.106;2022-11-23T08:51:51;8.50;99.40
46356;DHT22;32066;49.474;11.106;2022-11-23T08:54:19;8.50;99.40
46356;DHT22;32066;49.474;11.106;2022-11-23T08:56:47;8.50;99.40
46356;DHT22;32066;49.474;11.106;2022-11-23T08:59:14;8.60;99.40
46356;DHT22;32066;49.474;11.106;2022-11-23T09:01:43;8.60;99.30
46356;DHT22;32066;49.474;11.106;2022-11-23T09:04:10;8.60;99.30
46356;DHT22;32066;49.474;11.106;2022-11-23T09:06:37;8.60;99.30
46356;DHT22;32066;49.474;11.106;2022-11-23T09:09:04;8.60;99.30
46356;DHT22;32066;49.474;11.106;2022-11-23T09:11:31;8.70;99.40
46356;DHT22;32066;49.474;11.106;2022-11-23T09:13:57;8.70;99.40
46356;DHT22;32066;49.474;11.106;2022-11-23T09:16:24;8.70;99.40
46356;DHT22;32066;49.474;11.106;2022-11-23T09:18:55;8.70;99.40
46356;DHT22;32066;49.474;11.106;2022-11-23T09:21:22;8.80;99.20
46356;DHT22;32066;49.474;11.106;2022-11-23T09:23:54;8.80;99.10
46356;DHT22;32066;49.474;11.106;2022-11-23T09:26:21;8.80;99.10
46356;DHT22;32066;49.474;11.106;2022-11-23T09:28:48;8.90;99.10
46356;DHT22;32066;49.474;11.106;2022-11-23T09:31:15;8.90;99.10
46356;DHT22;32066;49.474;11.106;2022-11-23T09:33:42;9.00;99.50
46356;DHT22;32066;49.474;11.106;2022-11-23T09:36:10;9.00;99.30
46356;DHT22;32066;49.474;11.106;2022-11-23T09:38:37;9.10;99.20
46356;DHT22;32066;49.474;11.106;2022-11-23T09:41:15;9.10;99.20
46356;DHT22;32066;49.474;11.106;2022-11-23T09:43:53;9.20;99.60
46356;DHT22;32066;49.474;11.106;2022-11-23T09:46:28;9.30;99.70
46356;DHT22;32066;49.474;11.106;2022-11-23T09:49:13;9.30;99.70
46356;DHT22;32066;49.474;11.106;2022-11-23T09:51:43;9.40;99.80
46356;DHT22;32066;49.474;11.106;2022-11-23T09:54:21;9.50;99.80
46356;DHT22;32066;49.474;11.106;2022-11-23T09:56:50;9.60;99.80
46356;DHT22;32066;49.474;11.106;2022-11-23T09:59:26;9.70;99.50
46356;DHT22;32066;49.474;11.106;2022-11-23T10:01:57;9.90;99.50
46356;DHT22;32066;49.474;11.106;2022-11-23T10:04:26;10.00;99.40
46356;DHT22;32066;49.474;11.106;2022-11-23T10:06:58;10.10;99.30
46356;DHT22;32066;49.474;11.106;2022-11-23T10:09:37;10.20;99.20
46356;DHT22;32066;49.474;11.106;2022-11-23T10:12:18;10.40;99.10
46356;DHT22;32066;49.474;11.106;2022-11-23T10:14:57;10.60;99.10
46356;DHT22;32066;49.474;11.106;2022-11-23T10:17:37;10.70;99.00
46356;DHT22;32066;49.474;11.106;2022-11-23T10:20:20;11.00;99.10
46356;DHT22;32066;49.474;11.106;2022-11-23T10:22:57;11.30;99.00
46356;DHT22;32066;49.474;11.106;2022-11-23T10:25:28;11.60;98.90
46356;DHT22;32066;49.474;11.106;2022-11-23T10:27:59;12.00;98.50
46356;DHT22;32066;49.474;11.106;2022-11-23T10:30:27;12.10;98.00
46356;DHT22;32066;49.474;11.106;2022-11-23T10:32:57;12.30;97.40
46356;DHT22;32066;49.474;11.106;2022-11-23T10:35:28;12.40;97.00
46356;DHT22;32066;49.474;11.106;2022-11-23T10:38:08;12.50;96.60
46356;DHT22;32066;49.474;11.106;2022-11-23T10:40:38;12.60;96.40
46356;DHT22;32066;49.474;11.106;2022-11-23T10:43:13;12.60;96.50
46356;DHT22;32066;49.474;11.106;2022-11-23T10:45:42;12.70;96.50
46356;DHT22;32066;49.474;11.106;2022-11-23T10:48:09;12.70;96.20
46356;DHT22;32066;49.474;11.106;2022-11-23T10:50:37;12.80;96.00
46356;DHT22;32066;49.474;11.106;2022-11-23T10:53:19;12.80;95.90
46356;DHT22;32066;49.474;11.106;2022-11-23T10:55:48;12.80;95.60
46356;DHT22;32066;49.474;11.106;2022-11-23T10:58:24;12.90;95.40
46356;DHT22;32066;49.474;11.106;2022-11-23T11:00:58;13.10;95.40
46356;DHT22;32066;49.474;11.106;2022-11-23T11:03:25;13.10;95.80
46356;DHT22;32066;49.474;11.106;2022-11-23T11:05:51;13.20;95.50
46356;DHT22;32066;49.474;11.106;2022-11-23T11:08:26;13.20;95.30
46356;DHT22;32066;49.474;11.106;2022-11-23T11:10:59;13.30;95.20
46356;DHT22;32066;49.474;11.106;2022-11-23T11:13:29;13.40;95.00
46356;DHT22;32066;49.474;11.106;2022-11-23T11:15:58;13.50;95.00
46356;DHT22;32066;49.474;11.106;2022-11-23T11:18:28;13.60;94.60
46356;DHT22;32066;49.474;11.106;2022-11-23T11:20:58;13.70;94.90
46356;DHT22;32066;49.474;11.106;2022-11-23T11:23:27;13.80;94.60
46356;DHT22;32066;49.474;11.106;2022-11-23T11:26:04;13.90;94.70
46356;DHT22;32066;49.474;11.106;2022-11-23T11:28:35;13.90;94.40
46356;DHT22;32066;49.474;11.106;2022-11-23T11:31:18;14.00;94.20
46356;DHT22;32066;49.474;11.106;2022-11-23T11:33:54;14.00;94.10
46356;DHT22;32066;49.474;11.106;2022-11-23T11:36:23;14.20;94.30
46356;DHT22;32066;49.474;11.106;2022-11-23T11:38:54;14.40;94.60
46356;DHT22;32066;49.474;11.106;2022-11-23T11:41:23;14.60;94.00
46356;DHT22;32066;49.474;11.106;2022-11-23T11:43:55;14.70;93.50
46356;DHT22;32066;49.474;11.106;2022-11-23T11:46:27;15.00;93.60
46356;DHT22;32066;49.474;11.106;2022-11-23T11:49:01;15.20;93.40
46356;DHT22;32066;49.474;11.106;2022-11-23T11:51:34;15.40;93.30
46356;DHT22;32066;49.474;11.106;2022-11-23T11:54:12;15.60;92.30
46356;DHT22;32066;49.474;11.106;2022-11-23T11:56:44;15.80;91.80
46356;DHT22;32066;49.474;11.106;2022-11-23T11:59:15;16.10;92.30
46356;DHT22;32066;49.474;11.106;2022-11-23T12:01:53;16.30;92.10
46356;DHT22;32066;49.474;11.106;2022-11-23T12:04:25;16.50;91.30
46356;DHT22;32066;49.474;11.106;2022-11-23T12:07:00;16.70;90.80
46356;DHT22;32066;49.474;11.106;2022-11-23T12:09:31;17.00;91.30
46356;DHT22;32066;49.474;11.106;2022-11-23T12:12:01;17.30;91.40
46356;DHT22;32066;49.474;11.106;2022-11-23T12:14:29;17.50;90.20
46356;DHT22;32066;49.474;11.106;2022-11-23T12:17:01;17.70;90.30
46356;DHT22;32066;49.474;11.106;2022-11-23T12:19:38;18.00;92.70
46356;DHT22;32066;49.474;11.106;2022-11-23T12:22:18;18.20;92.90
46356;DHT22;32066;49.474;11.106;2022-11-23T12:24:58;18.30;91.20
46356;DHT22;32066;49.474;11.106;2022-11-23T12:27:34;18.40;90.70
46356;DHT22;32066;49.474;11.106;2022-11-23T12:30:19;18.50;87.10
46356;DHT22;32066;49.474;11.106;2022-11-23T12:33:01;18.50;86.60
46356;DHT22;32066;49.474;11.106;2022-11-23T12:35:47;18.50;86.20
46356;DHT22;32066;49.474;11.106;2022-11-23T12:38:26;18.60;80.30
46356;DHT22;32066;49.474;11.106;2022-11-23T12:41:18;18.60;76.50
46356;DHT22;32066;49.474;11.106;2022-11-23T12:44:01;18.50;72.50
46356;DHT22;32066;49.474;11.106;2022-11-23T12:46:35;18.30;70.00
46356;DHT22;32066;49.474;11.106;2022-11-23T12:49:18;18.20;69.40
46356;DHT22;32066;49.474;11.106;2022-11-23T12:51:55;18.10;68.60
46356;DHT22;32066;49.474;11.106;2022-11-23T12:54:38;18.00;68.20
46356;DHT22;32066;49.474;11.106;2022-11-23T12:57:14;17.90;68.10
46356;DHT22;32066;49.474;11.106;2022-11-23T12:59:47;17.90;67.60
46356;DHT22;32066;49.474;11.106;2022-11-23T13:05:40;18.10;69.20
46356;DHT22;32066;49.474;11.106;2022-11-23T13:08:28;18.40;68.00
46356;DHT22;32066;49.474;11.106;2022-11-23T13:11:15;18.50;67.20
46356;DHT22;32066;49.474;11.106;2022-11-23T13:13:57;18.60;66.80
46356;DHT22;32066;49.474;11.106;2022-11-23T13:16:35;18.80;67.60
46356;DHT22;32066;49.474;11.106;2022-11-23T13:19:14;18.90;64.80
46356;DHT22;32066;49.474;11.106;2022-11-23T13:21:45;19.00;65.00
46356;DHT22;32066;49.474;11.106;2022-11-23T13:24:26;19.10;65.00
46356;DHT22;32066;49.474;11.106;2022-11-23T13:29:56;19.10;63.80
46356;DHT22;32066;49.474;11.106;2022-11-23T13:32:44;19.30;64.60
46356;DHT22;32066;49.474;11.106;2022-11-23T13:35:47;19.50;63.80
46356;DHT22;32066;49.474;11.106;2022-11-23T13:44:20;20.40;61.80
46356;DHT22;32066;49.474;11.106;2022-11-23T13:47:01;20.60;61.40
46356;DHT22;32066;49.474;11.106;2022-11-23T13:49:31;20.90;60.80
46356;DHT22;32066;49.474;11.106;2022-11-23T13:54:56;21.00;58.80
46356;DHT22;32066;49.474;11.106;2022-11-23T13:57:24;21.30;59.30
46356;DHT22;32066;49.474;11.106;2022-11-23T13:59:51;21.50;57.70
46356;DHT22;32066;49.474;11.106;2022-11-23T14:02:28;21.50;56.30
46356;DHT22;32066;49.474;11.106;2022-11-23T14:05:52;21.50;56.50
46356;DHT22;32066;49.474;11.106;2022-11-23T14:08:20;22.00;56.50
46356;DHT22;32066;49.474;11.106;2022-11-23T14:10:48;22.10;54.60
46356;DHT22;32066;49.474;11.106;2022-11-23T14:13:18;21.70;53.60
46356;DHT22;32066;49.474;11.106;2022-11-23T14:15:53;21.40;53.70
46356;DHT22;32066;49.474;11.106;2022-11-23T14:18:39;21.50;53.80
46356;DHT22;32066;49.474;11.106;2022-11-23T14:21:12;21.30;53.20
46356;DHT22;32066;49.474;11.106;2022-11-23T14:26:56;21.00;54.50
46356;DHT22;32066;49.474;11.106;2022-11-23T14:29:32;20.60;54.90
46356;DHT22;32066;49.474;11.106;2022-11-23T14:32:28;20.30;55.50
46356;DHT22;32066;49.474;11.106;2022-11-23T14:35:11;19.90;56.40
46356;DHT22;32066;49.474;11.106;2022-11-23T14:37:50;20.20;56.20
46356;DHT22;32066;49.474;11.106;2022-11-23T14:40:26;20.80;55.60
46356;DHT22;32066;49.474;11.106;2022-11-23T14:42:54;21.50;53.90
46356;DHT22;32066;49.474;11.106;2022-11-23T14:45:23;21.90;52.90
46356;DHT22;32066;49.474;11.106;2022-11-23T14:47:52;21.40;53.00
46356;DHT22;32066;49.474;11.106;2022-11-23T14:50:22;20.60;54.20
46356;DHT22;32066;49.474;11.106;2022-11-23T14:52:51;19.80;55.50
46356;DHT22;32066;49.474;11.106;2022-11-23T14:55:21;19.10;56.70
46356;DHT22;32066;49.474;11.106;2022-11-23T14:57:50;18.40;57.90
46356;DHT22;32066;49.474;11.106;2022-11-23T15:00:29;17.90;59.30
46356;DHT22;32066;49.474;11.106;2022-11-23T15:03:00;17.50;60.20
46356;DHT22;32066;49.474;11.106;2022-11-23T15:05:34;17.20;61.10
46356;DHT22;32066;49.474;11.106;2022-11-23T15:08:03;16.90;61.90
46356;DHT22;32066;49.474;11.106;2022-11-23T15:10:42;16.50;63.00
46356;DHT22;32066;49.474;11.106;2022-11-23T15:13:19;16.20;64.30
46356;DHT22;32066;49.474;11.106;2022-11-23T15:15:48;15.90;64.90
46356;DHT22;32066;49.474;11.106;2022-11-23T15:18:26;15.60;66.10
46356;DHT22;32066;49.474;11.106;2022-11-23T15:20:56;15.40;67.00
46356;DHT22;32066;49.474;11.106;2022-11-23T15:23:27;15.20;67.90
46356;DHT22;32066;49.474;11.106;2022-11-23T15:25:56;15.00;68.80
46356;DHT22;32066;49.474;11.106;2022-11-23T15:28:25;14.70;69.90
46356;DHT22;32066;49.474;11.106;2022-11-23T15:30:53;14.60;70.30
46356;DHT22;32066;49.474;11.106;2022-11-23T15:33:21;14.40;71.40
46356;DHT22;32066;49.474;11.106;2022-11-23T15:35:49;14.20;71.70
46356;DHT22;32066;49.474;11.106;2022-11-23T15:38:19;14.10;72.30
46356;DHT22;32066;49.474;11.106;2022-11-23T15:40:48;14.00;73.00
46356;DHT22;32066;49.474;11.106;2022-11-23T15:43:17;13.80;73.80
46356;DHT22;32066;49.474;11.106;2022-11-23T15:46:01;13.70;74.20
46356;DHT22;32066;49.474;11.106;2022-11-23T15:48:30;13.60;74.70
46356;DHT22;32066;49.474;11.106;2022-11-23T15:50:59;13.40;75.30
46356;DHT22;32066;49.474;11.106;2022-11-23T15:53:29;13.30;76.50
46356;DHT22;32066;49.474;11.106;2022-11-23T15:56:00;13.10;77.00
46356;DHT22;32066;49.474;11.106;2022-11-23T15:58:28;12.90;77.90
46356;DHT22;32066;49.474;11.106;2022-11-23T16:01:06;12.80;78.30
46356;DHT22;32066;49.474;11.106;2022-11-23T16:03:41;12.70;78.70
46356;DHT22;32066;49.474;11.106;2022-11-23T16:06:14;12.60;79.90
46356;DHT22;32066;49.474;11.106;2022-11-23T16:08:43;12.50;79.70